createdAt,value
2018-10-05T00:02:15.089Z,6.23
2018-10-05T00:04:43.178Z,6.47
2018-10-05T00:07:11.151Z,6.33
2018-10-05T00:09:39.123Z,6.07
2018-10-05T00:12:07.091Z,6.57
2018-10-05T00:14:35.028Z,6.93
2018-10-05T00:17:03.237Z,6.77
2018-10-05T00:19:31.208Z,6.83
2018-10-05T00:21:59.217Z,6.27
2018-10-05T00:24:27.159Z,6.37
2018-10-05T00:26:55.169Z,6.50
2018-10-05T00:29:23.182Z,6.53
2018-10-05T00:31:51.151Z,6.77
2018-10-05T00:34:19.231Z,6.73
2018-10-05T00:36:47.252Z,7.80
2018-10-05T00:39:15.205Z,6.53
2018-10-05T00:41:43.131Z,7.17
2018-10-05T00:44:11.096Z,6.53
2018-10-05T00:46:39.057Z,6.60
2018-10-05T00:49:06.987Z,6.50
2018-10-05T00:51:41.870Z,7.20
2018-10-05T00:54:09.879Z,6.07
2018-10-05T00:56:37.911Z,6.00
2018-10-05T00:59:06.087Z,6.63
2018-10-05T01:01:34.074Z,6.30
2018-10-05T01:04:02.012Z,6.73
2018-10-05T01:06:29.935Z,6.27
2018-10-05T01:08:57.977Z,6.17
2018-10-05T01:11:25.995Z,6.40
2018-10-05T01:13:54.315Z,7.17
2018-10-05T01:16:22.296Z,7.00
2018-10-05T01:18:50.245Z,6.80
2018-10-05T01:21:18.238Z,6.27
2018-10-05T01:23:47.099Z,6.37
2018-10-05T01:26:15.143Z,6.27
2018-10-05T01:28:43.090Z,6.70
2018-10-05T01:31:11.133Z,6.43
2018-10-05T01:33:39.181Z,6.10
2018-10-05T01:36:07.098Z,7.37
2018-10-05T01:38:35.092Z,6.43
2018-10-05T01:41:03.125Z,7.10
2018-10-05T01:43:31.130Z,7.70
2018-10-05T01:45:59.080Z,7.17
2018-10-05T01:48:27.064Z,7.00
2018-10-05T01:50:55.038Z,6.77
2018-10-05T01:53:23.000Z,6.13
2018-10-05T01:55:50.932Z,6.27
2018-10-05T01:58:18.978Z,6.73
2018-10-05T02:00:47.076Z,7.03
2018-10-05T02:03:15.258Z,6.07
2018-10-05T02:05:43.258Z,6.23
2018-10-05T02:08:11.199Z,6.80
2018-10-05T02:10:39.358Z,6.37
2018-10-05T02:13:07.374Z,6.77
2018-10-05T02:15:35.825Z,6.90
2018-10-05T02:18:03.799Z,6.60
2018-10-05T02:20:31.752Z,6.93
2018-10-05T02:22:59.971Z,6.90
2018-10-05T02:25:28.211Z,6.10
2018-10-05T02:27:56.184Z,6.60
2018-10-05T02:30:24.218Z,6.67
2018-10-05T02:32:52.230Z,6.93
2018-10-05T02:35:20.190Z,5.97
2018-10-05T02:37:48.191Z,6.90
2018-10-05T02:40:16.226Z,6.17
2018-10-05T02:42:44.204Z,5.93
2018-10-05T02:45:12.176Z,6.70
2018-10-05T02:47:40.155Z,5.43
2018-10-05T02:50:08.113Z,6.63
2018-10-05T02:52:36.150Z,6.40
2018-10-05T02:55:04.086Z,6.00
2018-10-05T02:57:32.134Z,6.43
2018-10-05T03:00:00.162Z,6.57
2018-10-05T03:02:31.344Z,6.50
2018-10-05T03:04:59.307Z,6.60
2018-10-05T03:07:28.715Z,6.60
2018-10-05T03:09:56.994Z,6.60
2018-10-05T03:12:25.063Z,7.33
2018-10-05T03:14:53.027Z,6.70
2018-10-05T03:17:20.981Z,7.70
2018-10-05T03:19:49.001Z,6.80
2018-10-05T03:22:17.139Z,6.07
2018-10-05T03:24:45.127Z,6.43
2018-10-05T03:27:13.256Z,6.80
2018-10-05T03:29:41.261Z,6.60
2018-10-05T03:32:09.809Z,6.43
2018-10-05T03:34:37.823Z,6.10
2018-10-05T03:37:05.981Z,6.73
2018-10-05T03:42:07.216Z,6.30
2018-10-05T03:44:35.213Z,6.40
2018-10-05T03:47:03.298Z,6.57
2018-10-05T03:49:31.259Z,6.27
2018-10-05T03:51:59.348Z,6.70
2018-10-05T03:54:27.403Z,6.80
2018-10-05T03:56:55.484Z,7.23
2018-10-05T03:59:23.543Z,6.53
2018-10-05T04:01:51.938Z,6.47
2018-10-05T04:04:19.971Z,6.53
2018-10-05T04:06:47.891Z,6.80
2018-10-05T04:09:16.154Z,6.40
2018-10-05T04:11:44.147Z,6.13
2018-10-05T04:14:12.188Z,7.43
2018-10-05T04:16:40.259Z,6.57
2018-10-05T04:19:08.342Z,6.93
2018-10-05T04:21:36.610Z,6.30
2018-10-05T04:24:04.583Z,7.07
2018-10-05T04:26:32.597Z,6.60
2018-10-05T04:29:00.620Z,6.50
2018-10-05T04:31:28.686Z,7.00
2018-10-05T04:33:57.628Z,7.07
2018-10-05T04:36:25.655Z,6.80
2018-10-05T04:38:53.931Z,6.73
2018-10-05T04:41:22.013Z,7.77
2018-10-05T04:43:49.988Z,7.30
2018-10-05T04:46:17.996Z,6.57
2018-10-05T04:48:45.947Z,7.03
2018-10-05T04:51:13.997Z,6.50
2018-10-05T04:53:42.021Z,6.27
2018-10-05T04:56:09.972Z,6.33
2018-10-05T04:58:37.954Z,6.40
2018-10-05T05:01:05.967Z,5.97
2018-10-05T05:03:33.952Z,6.40
2018-10-05T05:06:01.861Z,6.57
2018-10-05T05:08:29.812Z,6.20
2018-10-05T05:10:57.742Z,6.73
2018-10-05T05:13:26.007Z,7.10
2018-10-05T05:15:54.095Z,6.43
2018-10-05T05:18:22.103Z,6.30
2018-10-05T05:20:50.046Z,6.63
2018-10-05T05:23:18.213Z,6.83
2018-10-05T05:25:46.150Z,6.90
2018-10-05T05:28:14.127Z,6.50
2018-10-05T05:30:42.059Z,6.37
2018-10-05T05:33:09.995Z,7.17
2018-10-05T05:35:38.025Z,7.30
2018-10-05T05:38:06.060Z,6.77
2018-10-05T05:40:34.097Z,6.87
2018-10-05T05:43:02.137Z,11.13
2018-10-05T05:45:30.109Z,9.63
2018-10-05T05:47:58.417Z,6.67
2018-10-05T05:50:26.374Z,5.97
2018-10-05T05:52:54.397Z,6.17
2018-10-05T05:55:22.426Z,6.40
2018-10-05T05:57:50.414Z,6.00
2018-10-05T06:00:18.441Z,7.77
2018-10-05T06:02:46.539Z,6.20
2018-10-05T06:05:14.518Z,7.10
2018-10-05T06:07:42.575Z,6.90
2018-10-05T06:10:10.655Z,7.50
2018-10-05T06:12:38.727Z,8.13
2018-10-05T06:15:06.768Z,6.80
2018-10-05T06:17:34.923Z,5.97
2018-10-05T06:20:02.958Z,6.60
2018-10-05T06:22:31.131Z,7.00
2018-10-05T06:24:58.982Z,7.00
2018-10-05T06:27:27.001Z,8.87
2018-10-05T06:29:54.895Z,8.27
2018-10-05T06:32:23.064Z,7.03
2018-10-05T06:34:50.963Z,8.30
2018-10-05T06:37:18.986Z,7.13
2018-10-05T06:39:46.920Z,7.53
2018-10-05T06:42:18.794Z,6.87
2018-10-05T06:44:46.718Z,6.07
2018-10-05T06:47:14.651Z,6.87
2018-10-05T06:49:42.607Z,6.57
2018-10-05T06:52:10.548Z,6.87
2018-10-05T06:54:38.494Z,7.07
2018-10-05T06:57:06.439Z,5.83
2018-10-05T06:59:34.380Z,5.87
2018-10-05T07:02:02.326Z,7.13
2018-10-05T07:04:30.278Z,9.37
2018-10-05T07:06:58.348Z,5.80
2018-10-05T07:09:26.334Z,7.23
2018-10-05T07:11:54.283Z,6.60
2018-10-05T07:14:22.382Z,6.70
2018-10-05T07:16:50.468Z,6.73
2018-10-05T07:19:18.527Z,6.27
2018-10-05T07:21:46.595Z,6.30
2018-10-05T07:24:14.668Z,6.03
2018-10-05T07:26:42.952Z,8.33
2018-10-05T07:29:11.025Z,6.97
2018-10-05T07:31:39.037Z,7.10
2018-10-05T07:34:06.989Z,6.47
2018-10-05T07:36:35.122Z,7.30
2018-10-05T07:39:03.131Z,5.83
2018-10-05T07:41:31.068Z,5.50
2018-10-05T07:43:59.023Z,5.33
2018-10-05T07:46:27.130Z,6.93
2018-10-05T07:48:55.112Z,5.93
2018-10-05T07:51:23.070Z,5.53
2018-10-05T07:53:51.194Z,5.90
2018-10-05T07:56:19.191Z,6.27
2018-10-05T07:58:50.907Z,5.90
2018-10-05T08:01:19.020Z,6.00
2018-10-05T08:03:47.062Z,6.67
2018-10-05T08:06:15.305Z,6.53
2018-10-05T08:08:43.347Z,5.10
2018-10-05T08:11:11.326Z,6.07
2018-10-05T08:13:39.380Z,5.53
2018-10-05T08:16:07.663Z,6.30
2018-10-05T08:18:35.604Z,5.33
2018-10-05T08:21:03.652Z,5.23
2018-10-05T08:23:31.559Z,4.60
2018-10-05T08:26:00.011Z,5.50
2018-10-05T08:28:27.963Z,5.10
2018-10-05T08:30:55.914Z,5.63
2018-10-05T08:33:24.036Z,4.90
2018-10-05T08:35:51.986Z,4.80
2018-10-05T08:38:19.944Z,4.53
2018-10-05T08:40:47.903Z,5.47
2018-10-05T08:43:15.894Z,5.13
2018-10-05T08:45:43.892Z,5.23
2018-10-05T08:48:11.852Z,4.33
2018-10-05T08:50:39.954Z,5.67
2018-10-05T08:53:08.128Z,5.23
2018-10-05T08:55:36.407Z,4.20
2018-10-05T08:58:04.413Z,4.47
2018-10-05T09:00:32.560Z,4.03
2018-10-05T09:03:00.832Z,4.00
2018-10-05T09:05:28.908Z,4.37
2018-10-05T09:07:56.978Z,5.43
2018-10-05T09:10:24.945Z,4.27
2018-10-05T09:12:52.954Z,4.20
2018-10-05T09:15:20.898Z,4.87
2018-10-05T09:17:49.490Z,4.53
2018-10-05T09:20:17.355Z,3.73
2018-10-05T09:22:45.324Z,3.40
2018-10-05T09:25:13.277Z,3.87
2018-10-05T09:27:41.310Z,3.20
2018-10-05T09:30:12.582Z,3.47
2018-10-05T09:32:40.582Z,3.53
2018-10-05T09:35:08.567Z,5.80
2018-10-05T09:37:37.000Z,4.63
2018-10-05T09:40:04.816Z,4.00
2018-10-05T09:42:32.754Z,3.80
2018-10-05T09:45:00.800Z,3.77
2018-10-05T09:47:30.407Z,3.00
2018-10-05T09:49:58.395Z,7.60
2018-10-05T09:52:26.636Z,5.40
2018-10-05T09:54:54.412Z,4.90
2018-10-05T09:57:22.371Z,3.13
2018-10-05T09:59:50.368Z,2.50
2018-10-05T10:02:22.661Z,6.33
2018-10-05T10:04:50.829Z,7.80
2018-10-05T10:07:18.759Z,7.83
2018-10-05T10:09:46.758Z,3.53
2018-10-05T10:12:14.668Z,4.33
2018-10-05T10:14:42.606Z,3.00
2018-10-05T10:17:10.824Z,3.40
2018-10-05T10:19:38.778Z,3.13
2018-10-05T10:22:06.738Z,3.77
2018-10-05T10:24:34.773Z,3.20
2018-10-05T10:27:02.743Z,3.33
2018-10-05T10:29:30.830Z,4.33
2018-10-05T10:31:58.732Z,2.50
2018-10-05T10:34:26.686Z,3.30
2018-10-05T10:36:54.693Z,3.23
2018-10-05T10:39:22.669Z,3.57
2018-10-05T10:41:50.625Z,2.83
2018-10-05T10:44:18.566Z,2.80
2018-10-05T10:46:46.509Z,2.80
2018-10-05T10:49:14.476Z,2.60
2018-10-05T10:51:42.523Z,5.50
2018-10-05T10:54:10.469Z,3.60
2018-10-05T10:56:38.411Z,9.73
2018-10-05T10:59:06.419Z,8.63
2018-10-05T11:01:34.385Z,3.97
2018-10-05T11:04:02.402Z,2.90
2018-10-05T11:06:30.303Z,2.73
2018-10-05T11:08:58.324Z,3.50
2018-10-05T11:11:26.272Z,4.57
2018-10-05T11:13:54.204Z,7.97
2018-10-05T11:16:22.267Z,4.97
2018-10-05T11:18:50.223Z,3.67
2018-10-05T11:21:18.188Z,3.63
2018-10-05T11:23:46.172Z,8.60
2018-10-05T11:26:14.167Z,5.00
2018-10-05T11:28:42.110Z,4.40
2018-10-05T11:31:10.065Z,8.47
2018-10-05T11:33:38.142Z,5.40
2018-10-05T11:36:06.224Z,5.10
2018-10-05T11:38:34.188Z,3.63
2018-10-05T11:41:02.169Z,3.17
2018-10-05T11:43:30.128Z,6.67
2018-10-05T11:45:58.081Z,5.90
2018-10-05T11:48:26.068Z,4.33
2018-10-05T11:50:54.122Z,3.77
2018-10-05T11:53:22.123Z,4.10
2018-10-05T11:55:50.057Z,5.33
2018-10-05T11:58:18.046Z,3.83
2018-10-05T12:00:46.024Z,3.40
2018-10-05T12:03:13.969Z,3.63
2018-10-05T12:05:41.994Z,4.77
2018-10-05T12:08:09.956Z,11.30
2018-10-05T12:10:37.908Z,9.97
2018-10-05T12:13:05.912Z,7.67
2018-10-05T12:15:33.897Z,4.10
2018-10-05T12:18:01.877Z,4.00
2018-10-05T12:20:29.917Z,4.57
2018-10-05T12:22:58.024Z,9.40
2018-10-05T12:25:25.989Z,4.93
2018-10-05T12:27:53.941Z,7.67
2018-10-05T12:30:21.925Z,6.97
2018-10-05T12:32:49.870Z,13.30
2018-10-05T12:35:17.855Z,8.27
2018-10-05T12:37:45.794Z,6.07
2018-10-05T12:40:13.743Z,6.50
2018-10-05T12:42:41.700Z,4.70
2018-10-05T12:45:09.704Z,5.90
2018-10-05T12:47:37.727Z,4.30
2018-10-05T12:50:06.155Z,4.20
2018-10-05T12:52:34.268Z,5.03
2018-10-05T12:55:02.269Z,5.53
2018-10-05T12:57:30.196Z,5.60
2018-10-05T12:59:58.139Z,4.37
2018-10-05T13:02:26.121Z,6.40
2018-10-05T13:04:54.118Z,3.50
2018-10-05T13:07:22.052Z,3.07
2018-10-05T13:09:50.033Z,4.63
2018-10-05T13:12:17.955Z,4.47
2018-10-05T13:14:45.894Z,5.53
2018-10-05T13:17:13.897Z,3.60
2018-10-05T13:19:41.871Z,4.97
2018-10-05T13:22:09.842Z,5.37
2018-10-05T13:24:37.801Z,7.40
2018-10-05T13:27:05.848Z,4.03
2018-10-05T13:29:33.937Z,4.70
2018-10-05T13:32:01.900Z,4.40
2018-10-05T13:34:29.893Z,5.33
2018-10-05T13:36:57.987Z,4.10
2018-10-05T13:39:25.932Z,4.40
2018-10-05T13:41:53.940Z,4.27
2018-10-05T13:44:21.846Z,3.57
2018-10-05T13:46:49.828Z,4.37
2018-10-05T13:49:17.803Z,4.60
2018-10-05T13:51:45.742Z,3.90
2018-10-05T13:54:13.778Z,4.30
2018-10-05T13:56:41.711Z,3.97
2018-10-05T13:59:09.709Z,3.97
2018-10-05T14:01:37.658Z,5.63
2018-10-05T14:04:05.618Z,4.93
2018-10-05T14:06:33.794Z,4.60
2018-10-05T14:09:02.149Z,3.80
2018-10-05T14:11:30.111Z,3.47
2018-10-05T14:13:58.086Z,3.43
2018-10-05T14:16:26.147Z,4.23
2018-10-05T14:18:54.102Z,4.23
2018-10-05T14:21:22.048Z,3.80
2018-10-05T14:23:49.970Z,3.80
2018-10-05T14:26:18.012Z,4.43
2018-10-05T14:28:45.972Z,3.47
2018-10-05T14:31:13.908Z,4.00
2018-10-05T14:33:41.948Z,4.20
2018-10-05T14:36:09.834Z,4.10
2018-10-05T14:38:38.129Z,3.83
2018-10-05T14:41:06.166Z,3.83
2018-10-05T14:43:34.099Z,3.77
2018-10-05T14:46:02.056Z,3.30
2018-10-05T14:48:30.107Z,3.80
2018-10-05T14:50:58.084Z,3.43
2018-10-05T14:53:26.036Z,3.90
2018-10-05T14:55:53.980Z,3.53
2018-10-05T14:58:21.928Z,4.30
2018-10-05T15:00:49.878Z,4.47
2018-10-05T15:03:17.832Z,4.30
2018-10-05T15:05:45.795Z,4.10
2018-10-05T15:08:14.174Z,3.37
2018-10-05T15:10:42.131Z,3.57
2018-10-05T15:13:10.050Z,3.80
2018-10-05T15:15:38.049Z,3.47
2018-10-05T15:18:05.976Z,3.93
2018-10-05T15:20:33.963Z,4.37
2018-10-05T15:23:01.910Z,3.57
2018-10-05T15:25:30.126Z,4.57
2018-10-05T15:27:58.408Z,3.40
2018-10-05T15:30:26.326Z,3.27
2018-10-05T15:32:54.432Z,3.33
2018-10-05T15:35:22.298Z,4.57
2018-10-05T15:37:50.275Z,4.43
2018-10-05T15:40:18.318Z,3.83
2018-10-05T15:42:46.767Z,4.27
2018-10-05T15:45:14.722Z,3.70
2018-10-05T15:47:42.715Z,3.43
2018-10-05T15:50:10.735Z,3.57
2018-10-05T15:52:38.683Z,4.30
2018-10-05T15:55:06.720Z,3.30
2018-10-05T15:57:34.695Z,3.40
2018-10-05T16:00:02.659Z,3.20
2018-10-05T16:02:30.808Z,3.50
2018-10-05T16:04:59.220Z,3.87
2018-10-05T16:07:27.166Z,3.40
2018-10-05T16:09:55.094Z,3.70
2018-10-05T16:12:23.129Z,3.20
2018-10-05T16:14:51.040Z,3.77
2018-10-05T16:17:19.068Z,3.63
2018-10-05T16:19:47.006Z,3.80
2018-10-05T16:22:14.949Z,4.07
2018-10-05T16:24:44.169Z,4.00
2018-10-05T16:27:12.766Z,4.10
2018-10-05T16:29:40.640Z,4.07
2018-10-05T16:32:09.440Z,4.03
2018-10-05T16:34:37.401Z,4.73
2018-10-05T16:37:05.611Z,4.33
2018-10-05T16:39:33.865Z,4.23
2018-10-05T16:42:01.850Z,4.40
2018-10-05T16:44:29.847Z,6.10
2018-10-05T16:46:57.790Z,4.00
2018-10-05T16:49:25.731Z,5.10
2018-10-05T16:51:53.673Z,5.07
2018-10-05T16:54:21.633Z,5.07
2018-10-05T16:56:49.595Z,4.30
2018-10-05T16:59:17.529Z,4.90
2018-10-05T17:01:45.631Z,5.33
2018-10-05T17:04:13.568Z,5.40
2018-10-05T17:06:41.514Z,6.50
2018-10-05T17:09:10.531Z,5.40
2018-10-05T17:11:39.731Z,8.10
2018-10-05T17:14:07.746Z,8.30
2018-10-05T17:16:35.713Z,7.03
2018-10-05T17:19:03.826Z,6.07
2018-10-05T17:21:32.225Z,5.70
2018-10-05T17:24:00.164Z,5.00
2018-10-05T17:26:28.266Z,11.23
2018-10-05T17:28:56.219Z,6.57
2018-10-05T17:31:24.165Z,6.37
2018-10-05T17:33:52.176Z,5.50
2018-10-05T17:36:20.216Z,6.00
2018-10-05T17:38:48.336Z,5.47
2018-10-05T17:41:16.355Z,5.83
2018-10-05T17:43:44.348Z,5.10
2018-10-05T17:46:12.380Z,5.90
2018-10-05T17:48:40.599Z,5.27
2018-10-05T17:51:08.538Z,5.53
2018-10-05T17:53:36.534Z,5.50
2018-10-05T17:56:04.720Z,5.73
2018-10-05T17:58:32.629Z,5.33
2018-10-05T18:01:00.593Z,5.07
2018-10-05T18:03:28.533Z,5.30
2018-10-05T18:05:56.735Z,6.33
2018-10-05T18:08:24.729Z,5.47
2018-10-05T18:10:52.676Z,5.87
2018-10-05T18:13:20.832Z,5.73
2018-10-05T18:15:49.011Z,5.20
2018-10-05T18:18:17.103Z,5.43
2018-10-05T18:20:45.080Z,4.73
2018-10-05T18:23:13.048Z,5.17
2018-10-05T18:25:41.027Z,5.50
2018-10-05T18:28:09.100Z,5.93
2018-10-05T18:30:37.155Z,5.70
2018-10-05T18:33:05.101Z,5.50
2018-10-05T18:35:33.123Z,5.50
2018-10-05T18:38:01.150Z,5.20
2018-10-05T18:40:29.123Z,5.20
2018-10-05T18:42:57.116Z,5.60
2018-10-05T18:45:25.118Z,5.07
2018-10-05T18:47:53.141Z,4.80
2018-10-05T18:50:21.122Z,5.70
2018-10-05T18:52:49.075Z,5.70
2018-10-05T18:55:17.494Z,5.33
2018-10-05T18:57:45.450Z,5.53
2018-10-05T19:00:13.426Z,6.23
2018-10-05T19:02:41.358Z,5.70
2018-10-05T19:05:09.352Z,5.70
2018-10-05T19:07:37.314Z,6.23
2018-10-05T19:10:05.468Z,5.17
2018-10-05T19:12:33.487Z,5.13
2018-10-05T19:15:01.457Z,5.30
2018-10-05T19:17:29.482Z,5.73
2018-10-05T19:19:57.433Z,5.50
2018-10-05T19:22:25.476Z,5.93
2018-10-05T19:24:53.507Z,5.30
2018-10-05T19:27:21.466Z,5.40
2018-10-05T19:29:49.414Z,5.63
2018-10-05T19:32:17.442Z,4.90
2018-10-05T19:34:45.463Z,5.07
2018-10-05T19:37:13.435Z,5.03
2018-10-05T19:39:41.454Z,5.63
2018-10-05T19:42:09.465Z,5.37
2018-10-05T19:44:37.412Z,6.20
2018-10-05T19:47:05.350Z,6.17
2018-10-05T19:49:33.296Z,5.50
2018-10-05T19:52:01.233Z,5.00
2018-10-05T19:54:29.183Z,5.00
2018-10-05T19:56:57.130Z,5.23
2018-10-05T19:59:25.078Z,6.17
2018-10-05T20:01:53.050Z,9.00
2018-10-05T20:04:21.045Z,10.37
2018-10-05T20:06:49.131Z,10.83
2018-10-05T20:09:17.131Z,10.50
2018-10-05T20:11:45.083Z,9.60
2018-10-05T20:14:13.179Z,9.87
2018-10-05T20:16:41.267Z,8.90
2018-10-05T20:19:09.319Z,8.43
2018-10-05T20:21:37.287Z,7.67
2018-10-05T20:24:05.230Z,6.37
2018-10-05T20:26:33.189Z,6.27
2018-10-05T20:29:01.246Z,5.60
2018-10-05T20:31:29.216Z,6.33
2018-10-05T20:33:57.616Z,6.40
2018-10-05T20:36:25.679Z,5.50
2018-10-05T20:38:53.756Z,6.70
2018-10-05T20:41:22.064Z,5.40
2018-10-05T20:43:50.071Z,5.80
2018-10-05T20:46:18.048Z,4.67
2018-10-05T20:48:45.982Z,5.43
2018-10-05T20:51:13.923Z,5.37
2018-10-05T20:53:42.230Z,5.93
2018-10-05T20:56:10.302Z,6.20
2018-10-05T20:58:38.316Z,6.30
2018-10-05T21:01:06.432Z,5.67
2018-10-05T21:03:34.390Z,5.47
2018-10-05T21:06:02.597Z,5.47
2018-10-05T21:08:30.569Z,6.30
2018-10-05T21:10:58.527Z,6.13
2018-10-05T21:13:26.802Z,5.83
2018-10-05T21:15:54.809Z,6.60
2018-10-05T21:18:22.809Z,6.27
2018-10-05T21:20:50.767Z,5.77
2018-10-05T21:23:18.851Z,6.13
2018-10-05T21:25:47.188Z,6.00
2018-10-05T21:28:15.146Z,6.33
2018-10-05T21:30:43.624Z,5.47
2018-10-05T21:33:11.615Z,5.97
2018-10-05T21:35:39.537Z,5.70
2018-10-05T21:38:07.832Z,6.47
2018-10-05T21:40:35.777Z,6.30
2018-10-05T21:43:03.740Z,5.87
2018-10-05T21:45:31.743Z,6.60
2018-10-05T21:47:59.680Z,6.43
2018-10-05T21:50:27.636Z,6.17
2018-10-05T21:52:55.585Z,5.97
2018-10-05T21:55:23.576Z,6.37
2018-10-05T21:57:51.562Z,7.77
2018-10-05T22:00:19.569Z,7.63
2018-10-05T22:02:47.567Z,6.40
2018-10-05T22:05:15.507Z,5.83
2018-10-05T22:07:43.651Z,6.17
2018-10-05T22:10:11.597Z,5.97
2018-10-05T22:12:39.522Z,6.37
2018-10-05T22:15:07.518Z,6.33
2018-10-05T22:17:35.485Z,6.27
2018-10-05T22:20:03.522Z,6.40
2018-10-05T22:22:31.474Z,6.67
2018-10-05T22:24:59.451Z,6.33
2018-10-05T22:27:27.436Z,6.33
2018-10-05T22:29:55.442Z,6.63
2018-10-05T22:32:23.367Z,5.73
2018-10-05T22:34:51.410Z,6.00
2018-10-05T22:37:19.403Z,5.80
2018-10-05T22:39:47.466Z,6.67
2018-10-05T22:42:15.526Z,5.67
2018-10-05T22:44:43.470Z,5.97
2018-10-05T22:47:11.457Z,6.70
2018-10-05T22:49:39.460Z,6.63
2018-10-05T22:52:07.516Z,6.00
2018-10-05T22:54:35.847Z,5.10
2018-10-05T22:57:03.823Z,5.87
2018-10-05T22:59:31.760Z,6.20
2018-10-05T23:01:59.773Z,6.33
2018-10-05T23:04:27.793Z,5.83
2018-10-05T23:06:55.764Z,5.63
2018-10-05T23:09:23.747Z,6.50
2018-10-05T23:11:52.015Z,6.40
2018-10-05T23:14:19.977Z,6.17
2018-10-05T23:16:47.995Z,6.00
2018-10-05T23:19:15.972Z,5.73
2018-10-05T23:21:43.908Z,5.40
2018-10-05T23:24:11.916Z,5.93
2018-10-05T23:26:39.853Z,5.70
2018-10-05T23:29:07.895Z,5.83
2018-10-05T23:31:35.972Z,5.97
2018-10-05T23:34:04.242Z,5.90
2018-10-05T23:36:32.179Z,6.00
2018-10-05T23:39:00.113Z,5.53
2018-10-05T23:41:28.098Z,5.70
2018-10-05T23:43:56.034Z,6.30
2018-10-05T23:46:23.985Z,5.90
2018-10-05T23:48:53.822Z,5.67
2018-10-05T23:51:21.781Z,5.50
2018-10-05T23:53:49.780Z,5.73
2018-10-05T23:56:17.919Z,5.93
2018-10-05T23:58:45.938Z,6.07
